Time;durP1;ratioP1;P1;durP2;ratioP2;P2;SDS_P1;SDS_P2;PMS_P1;PMS_P2;Temp;Humidity;BMP_temperature;BMP_pressure;BME280_temperature;BME280_humidity;BME280_pressure;Samples;Min_cycle;Max_cycle;Signal;HPM_P1;HPM_P2
2021/06/30 00:01:25;;;;;;;;;;;;;;;24.67;53.35;101129.56;5047582;28;1084;-69
2021/06/30 00:04:16;;;;;;;;;;;;;;;24.70;52.93;101124.88;5027658;28;624;-69
2021/06/30 00:07:06;;;;;;;;;;;;;;;24.68;52.63;101134.81;5031829;28;1287;-70
2021/06/30 00:09:55;;;;;;;;;;;;;;;24.65;53.22;101128.84;5051908;28;1200;-69
2021/06/30 00:12:45;;;;;;;;;;;;;;;24.69;53.27;101135.63;5067461;28;1257;-70
2021/06/30 00:15:36;;;;;;;;;;;;;;;24.68;52.85;101134.81;5052467;28;1902;-68
2021/06/30 00:18:27;;;;;;;;;;;;;;;24.64;52.92;101135.13;5067133;28;1255;-68
2021/06/30 00:21:17;;;;;;;;;;;;;;;24.62;52.77;101124.63;5067139;28;1023;-69
2021/06/30 00:24:08;;;;;;;;;;;;;;;24.68;52.57;101123.28;5056124;28;1521;-69
2021/06/30 00:26:58;;;;;;;;;;;;;;;24.62;52.67;101129.94;5047095;28;1348;-69
2021/06/30 00:29:48;;;;;;;;;;;;;;;24.62;52.52;101129.09;5046950;28;616;-69
2021/06/30 00:32:38;;;;;;;;;;;;;;;24.53;52.59;101119.13;5047378;28;1299;-68
2021/06/30 00:35:29;;;;;;;;;;;;;;;24.62;52.63;101118.44;5047082;28;1910;-68
2021/06/30 00:38:19;;;;;;;;;;;;;;;24.57;52.57;101117.91;5047066;28;1382;-69
2021/06/30 00:41:09;;;;;;;;;;;;;;;24.63;52.71;101114.78;5047119;28;1114;-69
2021/06/30 00:44:00;;;;;;;;;;;;;;;24.59;52.69;101114.19;5047142;28;660;-70
2021/06/30 00:46:51;;;;;;;;;;;;;;;24.56;52.87;101119.75;5047512;28;1256;-69
2021/06/30 00:49:37;;;;;;;;;;;;;;;24.61;53.22;101122.91;5046418;28;658;-70
2021/06/30 00:52:22;;;;;;;;;;;;;;;24.58;52.41;101114.28;5046059;28;1335;-70
2021/06/30 00:55:13;;;;;;;;;;;;;;;24.56;52.61;101109.09;5046555;28;655;-70
2021/06/30 00:58:03;;;;;;;;;;;;;;;24.56;52.24;101109.09;5047031;28;1298;-69
2021/06/30 01:00:54;;;;;;;;;;;;;;;24.59;52.37;101113.34;5046612;28;1160;-69
2021/06/30 01:03:44;;;;;;;;;;;;;;;24.57;52.51;101107.25;5045671;28;1260;-69
2021/06/30 01:06:35;;;;;;;;;;;;;;;24.56;52.50;101103.78;5046945;28;1333;-69
2021/06/30 01:09:25;;;;;;;;;;;;;;;24.57;52.40;101100.13;5047385;28;1197;-69
2021/06/30 01:12:15;;;;;;;;;;;;;;;24.54;52.57;101110.16;5067067;28;1339;-70
2021/06/30 01:15:07;;;;;;;;;;;;;;;24.58;52.17;101100.97;5066458;28;608;-70
2021/06/30 01:17:53;;;;;;;;;;;;;;;24.56;52.69;101095.78;5065769;28;1465;-70
2021/06/30 01:20:43;;;;;;;;;;;;;;;24.52;51.99;101091.63;5066505;28;1025;-70
2021/06/30 01:23:34;;;;;;;;;;;;;;;24.57;52.11;101093.94;5060474;28;1521;-70
2021/06/30 01:26:24;;;;;;;;;;;;;;;24.47;52.26;101083.97;5046709;28;1036;-70
2021/06/30 01:29:16;;;;;;;;;;;;;;;24.50;52.54;101101.53;5046601;28;699;-70
2021/06/30 01:32:01;;;;;;;;;;;;;;;24.56;52.63;101095.78;5045067;28;1262;-71
2021/06/30 01:34:47;;;;;;;;;;;;;;;24.52;52.77;101096.13;5045447;28;632;-70
2021/06/30 01:37:43;;;;;;;;;;;;;;;24.48;52.37;101088.34;5046885;28;1977;-70
2021/06/30 01:40:34;;;;;;;;;;;;;;;24.48;52.63;101076.84;5045512;28;1053;-70
2021/06/30 01:43:25;;;;;;;;;;;;;;;24.48;52.42;101080.38;5046166;28;1272;-71
2021/06/30 01:46:15;;;;;;;;;;;;;;;24.46;52.58;101087.63;5046118;28;958;-70
2021/06/30 01:49:06;;;;;;;;;;;;;;;24.53;52.49;101084.50;5045664;28;695;-70
2021/06/30 01:51:56;;;;;;;;;;;;;;;24.47;52.46;101089.31;5046199;28;1217;-70
2021/06/30 01:54:46;;;;;;;;;;;;;;;24.45;52.94;101088.59;5046206;28;807;-70
2021/06/30 01:57:40;;;;;;;;;;;;;;;24.43;52.90;101087.88;5046267;28;1894;-70
2021/06/30 02:00:31;;;;;;;;;;;;;;;24.47;53.30;101091.97;5045884;28;1100;-70
2021/06/30 02:03:21;;;;;;;;;;;;;;;24.43;53.20;101087.88;5046115;28;1223;-69
2021/06/30 02:06:06;;;;;;;;;;;;;;;24.43;53.12;101087.88;5045965;28;1117;-70
2021/06/30 02:08:57;;;;;;;;;;;;;;;24.47;53.48;101089.31;5047810;28;712;-69
2021/06/30 02:11:47;;;;;;;;;;;;;;;24.43;53.50;101082.53;5067269;28;1321;-69
2021/06/30 02:14:37;;;;;;;;;;;;;;;24.47;53.40;101077.81;5068321;28;785;-69
2021/06/30 02:17:28;;;;;;;;;;;;;;;24.45;53.37;101072.59;5069306;28;1921;-69
2021/06/30 02:20:28;;;;;;;;;;;;;;;24.39;53.49;101078.41;5069835;28;1028;-68
2021/06/30 02:23:16;;;;;;;;;;;;;;;24.41;53.50;101072.94;5064391;28;1704;-69
2021/06/30 02:26:06;;;;;;;;;;;;;;;24.42;53.25;101072.84;5048244;28;945;-69
2021/06/30 02:28:57;;;;;;;;;;;;;;;24.38;53.31;101068.69;5048713;28;691;-69
2021/06/30 02:31:47;;;;;;;;;;;;;;;24.44;53.42;101062.91;5048590;28;1253;-69
2021/06/30 02:34:38;;;;;;;;;;;;;;;24.46;53.30;101071.66;5048952;28;655;-69
2021/06/30 02:37:28;;;;;;;;;;;;;;;24.43;53.21;101066.56;5048559;28;2009;-68
2021/06/30 02:40:19;;;;;;;;;;;;;;;24.40;53.02;101060.63;5048341;28;640;-69
2021/06/30 02:43:09;;;;;;;;;;;;;;;24.43;53.44;101066.56;5049371;28;1299;-69
2021/06/30 02:46:00;;;;;;;;;;;;;;;24.40;52.79;101066.78;5049100;28;1061;-68
2021/06/30 02:48:50;;;;;;;;;;;;;;;24.43;52.90;101060.38;5049065;28;1296;-68
2021/06/30 02:51:40;;;;;;;;;;;;;;;24.41;52.74;101059.63;5047268;28;1254;-68
2021/06/30 02:54:31;;;;;;;;;;;;;;;24.39;52.73;101069.56;5048398;28;691;-68
2021/06/30 02:57:21;;;;;;;;;;;;;;;24.40;52.68;101058.81;5048456;28;1898;-68
2021/06/30 03:00:13;;;;;;;;;;;;;;;24.40;52.69;101050.81;5047680;28;696;-69
2021/06/30 03:02:58;;;;;;;;;;;;;;;24.34;52.63;101051.28;5048085;28;1241;-69
2021/06/30 03:05:49;;;;;;;;;;;;;;;24.35;52.47;101050.31;5049319;28;1044;-69
2021/06/30 03:08:39;;;;;;;;;;;;;;;24.39;52.63;101051.78;5050988;28;1398;-69
2021/06/30 03:11:29;;;;;;;;;;;;;;;24.36;52.74;101040.50;5050366;28;1338;-69
2021/06/30 03:14:15;;;;;;;;;;;;;;;24.37;52.90;101048.38;5049428;28;655;-69
2021/06/30 03:17:05;;;;;;;;;;;;;;;24.33;53.08;101049.56;5050129;28;2002;-70
2021/06/30 03:19:55;;;;;;;;;;;;;;;24.34;53.55;101055.75;5050526;28;756;-70
2021/06/30 03:22:46;;;;;;;;;;;;;;;24.36;53.55;101059.13;5050579;28;1356;-70
2021/06/30 03:25:36;;;;;;;;;;;;;;;24.33;53.93;101054.03;5049244;28;1102;-70
2021/06/30 03:28:26;;;;;;;;;;;;;;;24.34;54.21;101048.63;5050462;28;1265;-70
2021/06/30 03:31:16;;;;;;;;;;;;;;;24.34;54.03;101053.94;5048753;28;1145;-69
2021/06/30 03:34:07;;;;;;;;;;;;;;;24.39;53.91;101041.13;5049940;28;676;-69
2021/06/30 03:36:57;;;;;;;;;;;;;;;24.39;53.89;101054.44;5049962;28;1910;-69
2021/06/30 03:39:47;;;;;;;;;;;;;;;24.36;53.98;101060.00;5050088;28;628;-71
2021/06/30 03:42:37;;;;;;;;;;;;;;;24.35;54.10;101057.44;5049417;28;1208;-69
2021/06/30 03:45:28;;;;;;;;;;;;;;;24.34;53.92;101061.94;5049434;28;1112;-69
2021/06/30 03:48:18;;;;;;;;;;;;;;;24.32;53.89;101057.66;5049798;28;1284;-69
2021/06/30 03:51:08;;;;;;;;;;;;;;;24.32;53.73;101057.66;5049810;28;1120;-69
2021/06/30 03:53:59;;;;;;;;;;;;;;;24.33;53.55;101057.56;5049613;28;635;-69
2021/06/30 03:56:49;;;;;;;;;;;;;;;24.34;53.68;101061.06;5049261;28;1902;-69
2021/06/30 03:59:39;;;;;;;;;;;;;;;24.35;53.85;101063.63;5049485;28;604;-69
2021/06/30 04:02:29;;;;;;;;;;;;;;;24.31;54.33;101070.16;5049564;28;1235;-69
2021/06/30 04:05:20;;;;;;;;;;;;;;;24.30;54.42;101063.13;5049080;28;604;-68
2021/06/30 04:08:11;;;;;;;;;;;;;;;24.29;54.85;101069.41;5048840;28;1250;-69
2021/06/30 04:11:01;;;;;;;;;;;;;;;24.32;55.28;101071.81;5048958;28;966;-70
2021/06/30 04:13:51;;;;;;;;;;;;;;;24.37;55.59;101077.69;5048773;28;655;-69
2021/06/30 04:16:42;;;;;;;;;;;;;;;24.35;55.69;101074.25;5048985;28;1987;-69
2021/06/30 04:19:32;;;;;;;;;;;;;;;24.33;56.07;101078.88;5048729;28;608;-69
2021/06/30 04:22:22;;;;;;;;;;;;;;;24.29;56.20;101072.06;5048982;28;1256;-69
2021/06/30 04:25:13;;;;;;;;;;;;;;;24.30;56.26;101064.94;5048836;28;549;-68
2021/06/30 04:28:03;;;;;;;;;;;;;;;24.27;56.16;101070.47;5048570;28;1383;-69
2021/06/30 04:30:54;;;;;;;;;;;;;;;24.25;55.94;101078.59;5047707;28;1147;-69
2021/06/30 04:33:44;;;;;;;;;;;;;;;24.23;55.79;101075.19;5048321;28;1359;-69
2021/06/30 04:36:35;;;;;;;;;;;;;;;24.25;55.78;101077.75;5047897;28;1910;-70
2021/06/30 04:39:27;;;;;;;;;;;;;;;24.25;55.45;101072.41;5048191;28;728;-69
2021/06/30 04:42:18;;;;;;;;;;;;;;;24.24;55.44;101082.22;5048078;28;1356;-69
2021/06/30 04:45:09;;;;;;;;;;;;;;;24.24;55.62;101076.03;5048195;28;628;-70
2021/06/30 04:47:59;;;;;;;;;;;;;;;24.23;55.56;101072.53;5048113;28;1362;-70
2021/06/30 04:50:50;;;;;;;;;;;;;;;24.21;55.63;101077.13;5048137;28;1031;-71
2021/06/30 04:53:40;;;;;;;;;;;;;;;24.24;55.54;101081.38;5048242;28;1291;-71
2021/06/30 04:56:39;;;;;;;;;;;;;;;24.18;55.47;101082.66;5046796;28;1989;-71
2021/06/30 04:59:29;;;;;;;;;;;;;;;24.18;55.23;101088.00;5048454;28;624;-69
2021/06/30 05:02:19;;;;;;;;;;;;;;;24.23;55.14;101084.97;5046936;28;1292;-71
2021/06/30 05:05:10;;;;;;;;;;;;;;;24.24;55.20;101086.69;5048045;28;652;-70
2021/06/30 05:08:00;;;;;;;;;;;;;;;24.18;55.24;101085.34;5048297;28;1365;-70
2021/06/30 05:10:51;;;;;;;;;;;;;;;24.24;55.14;101097.34;5048031;28;1050;-70
2021/06/30 05:13:41;;;;;;;;;;;;;;;24.24;55.06;101092.00;5048096;28;1227;-69
2021/06/30 05:16:31;;;;;;;;;;;;;;;24.21;55.42;101100.22;5047887;28;1905;-68
2021/06/30 05:19:22;;;;;;;;;;;;;;;24.26;54.87;101096.25;5048058;28;814;-68
2021/06/30 05:22:13;;;;;;;;;;;;;;;24.21;54.96;101092.22;5048097;28;1358;-69
2021/06/30 05:25:03;;;;;;;;;;;;;;;24.24;55.06;101086.69;5047603;28;828;-70
2021/06/30 05:27:49;;;;;;;;;;;;;;;24.26;54.79;101090.94;5047366;28;1220;-69
2021/06/30 05:30:39;;;;;;;;;;;;;;;24.27;54.79;101095.28;5047200;28;954;-67
2021/06/30 05:33:30;;;;;;;;;;;;;;;24.28;54.80;101093.50;5047822;28;1375;-71
2021/06/30 05:36:20;;;;;;;;;;;;;;;24.28;54.58;101091.69;5048139;28;973;-72
2021/06/30 05:39:05;;;;;;;;;;;;;;;24.30;54.51;101092.41;5047631;28;640;-71
2021/06/30 05:41:51;;;;;;;;;;;;;;;24.32;54.61;101085.13;5047931;28;1236;-70
2021/06/30 05:44:41;;;;;;;;;;;;;;;24.28;54.91;101088.16;5046396;28;643;-72
2021/06/30 05:47:33;;;;;;;;;;;;;;;24.32;54.66;101092.28;5048228;28;1244;-72
2021/06/30 05:50:24;;;;;;;;;;;;;;;24.33;54.57;101093.97;5051004;28;1064;-69
2021/06/30 05:53:09;;;;;;;;;;;;;;;24.31;54.74;101088.78;5051985;28;1430;-70
2021/06/30 05:55:59;;;;;;;;;;;;;;;24.32;54.57;101090.47;5051684;28;1052;-71
2021/06/30 05:58:50;;;;;;;;;;;;;;;24.34;54.64;101093.88;5050519;28;1982;-71
2021/06/30 06:01:41;;;;;;;;;;;;;;;24.32;54.95;101090.47;5050301;28;1377;-72
2021/06/30 06:04:31;;;;;;;;;;;;;;;24.33;55.13;101092.19;5052059;28;723;-72
2021/06/30 06:07:21;;;;;;;;;;;;;;;24.32;55.45;101094.94;5051946;28;1271;-69
2021/06/30 06:10:12;;;;;;;;;;;;;;;24.36;55.51;101094.59;5050564;28;651;-70
2021/06/30 06:12:57;;;;;;;;;;;;;;;24.33;55.46;101096.66;5051099;28;1261;-68
2021/06/30 06:15:47;;;;;;;;;;;;;;;24.31;55.40;101099.44;5051152;28;1149;-70
2021/06/30 06:18:37;;;;;;;;;;;;;;;24.26;55.76;101106.03;5052205;28;1906;-71
2021/06/30 06:21:28;;;;;;;;;;;;;;;24.32;55.36;101108.25;5051820;28;1266;-72
2021/06/30 06:24:18;;;;;;;;;;;;;;;24.28;55.31;101110.31;5052031;28;687;-71
2021/06/30 06:27:06;;;;;;;;;;;;;;;24.30;55.18;101103.06;5051838;28;1295;-71
2021/06/30 06:29:57;;;;;;;;;;;;;;;24.30;55.22;101110.19;5050258;28;623;-72
2021/06/30 06:32:47;;;;;;;;;;;;;;;24.28;55.07;101110.31;5051389;28;1428;-70
2021/06/30 06:35:32;;;;;;;;;;;;;;;24.26;55.11;101114.88;5051252;28;1137;-70
2021/06/30 06:38:25;;;;;;;;;;;;;;;24.29;54.75;101119.97;5050862;28;1902;-72
2021/06/30 06:41:16;;;;;;;;;;;;;;;24.29;54.51;101122.63;5050999;28;1098;-72
2021/06/30 06:44:07;;;;;;;;;;;;;;;24.28;54.47;101125.44;5051100;28;640;-71
2021/06/30 06:46:58;;;;;;;;;;;;;;;24.25;54.32;101123.84;5051244;28;1259;-71
2021/06/30 06:49:48;;;;;;;;;;;;;;;24.28;54.47;101130.75;5051929;28;616;-71
2021/06/30 06:52:38;;;;;;;;;;;;;;;24.30;54.38;101139.47;5051275;28;1279;-71
2021/06/30 06:55:28;;;;;;;;;;;;;;;24.32;54.22;101138.38;5050826;28;1108;-71
2021/06/30 06:58:19;;;;;;;;;;;;;;;24.31;54.28;101142.03;5050882;28;1901;-73
2021/06/30 07:01:06;;;;;;;;;;;;;;;24.26;54.29;101138.84;5050280;28;1063;-72
2021/06/30 07:03:52;;;;;;;;;;;;;;;24.29;54.30;101133.28;5049695;28;782;-70
2021/06/30 07:06:42;;;;;;;;;;;;;;;24.27;54.31;101134.38;5050691;28;1339;-69
2021/06/30 07:09:32;;;;;;;;;;;;;;;24.31;54.36;101139.38;5049528;28;1114;-68
2021/06/30 07:12:23;;;;;;;;;;;;;;;24.39;54.25;101144.09;5047924;28;1287;-68
2021/06/30 07:15:13;;;;;;;;;;;;;;;24.38;54.18;101151.25;5047093;28;1072;-67
2021/06/30 07:18:03;;;;;;;;;;;;;;;24.40;53.77;101141.34;5049020;28;1969;-68
2021/06/30 07:20:54;;;;;;;;;;;;;;;24.47;53.88;101147.03;5048533;28;1153;-65
2021/06/30 07:23:39;;;;;;;;;;;;;;;24.48;53.53;101154.06;5047581;28;1417;-66
2021/06/30 07:26:30;;;;;;;;;;;;;;;24.47;53.43;101147.91;5046181;28;1402;-68
2021/06/30 07:29:15;;;;;;;;;;;;;;;24.47;53.37;101147.03;5044178;28;1220;-67
2021/06/30 07:32:05;;;;;;;;;;;;;;;24.52;53.08;101152.03;5046726;28;1483;-66
2021/06/30 07:34:56;;;;;;;;;;;;;;;24.55;53.17;101151.81;5046699;28;1083;-68
2021/06/30 07:37:46;;;;;;;;;;;;;;;24.55;52.98;101146.47;5048256;28;1989;-66
2021/06/30 07:40:32;;;;;;;;;;;;;;;24.59;52.96;101150.63;5045184;28;1154;-66
2021/06/30 07:43:19;;;;;;;;;;;;;;;24.54;52.93;101152.75;5046226;28;1631;-62
2021/06/30 07:46:05;;;;;;;;;;;;;;;24.59;53.03;101155.94;5057581;28;1438;-66
2021/06/30 07:48:51;;;;;;;;;;;;;;;24.60;53.30;101170.94;5044283;28;1327;-66
2021/06/30 07:51:36;;;;;;;;;;;;;;;24.60;53.26;101168.28;5044800;28;1415;-65
2021/06/30 07:54:21;;;;;;;;;;;;;;;24.54;53.28;101158.94;5045384;28;972;-67
2021/06/30 07:57:07;;;;;;;;;;;;;;;24.60;53.31;101173.59;5046296;28;1997;-66
2021/06/30 07:59:52;;;;;;;;;;;;;;;24.63;53.43;101173.38;5044377;28;1549;-67
2021/06/30 08:02:37;;;;;;;;;;;;;;;24.64;53.08;101170.63;5043508;28;1291;-66
2021/06/30 08:05:23;;;;;;;;;;;;;;;24.65;53.04;101161.66;5045480;28;1009;-67
2021/06/30 08:08:08;;;;;;;;;;;;;;;24.64;52.80;101161.78;5046367;28;1332;-66
2021/06/30 08:10:54;;;;;;;;;;;;;;;24.57;53.10;101164.03;5043435;28;1444;-63
2021/06/30 08:13:40;;;;;;;;;;;;;;;24.54;53.18;101164.28;5043841;28;1276;-64
2021/06/30 08:16:25;;;;;;;;;;;;;;;24.45;53.61;101157.81;5043181;28;1215;-62
2021/06/30 08:19:10;;;;;;;;;;;;;;;24.52;53.40;101144.91;5044680;28;1906;-63
2021/06/30 08:21:56;;;;;;;;;;;;;;;24.53;53.53;101143.09;5045606;28;1358;-66
2021/06/30 08:24:43;;;;;;;;;;;;;;;24.52;53.86;101147.56;5045442;28;1047;-63
2021/06/30 08:27:28;;;;;;;;;;;;;;;24.54;53.78;101144.78;5046512;28;1414;-63
2021/06/30 08:30:14;;;;;;;;;;;;;;;24.48;53.58;101138.94;5042788;28;1127;-67
2021/06/30 08:33:00;;;;;;;;;;;;;;;24.49;53.56;101137.16;5044578;28;1430;-67
2021/06/30 08:35:45;;;;;;;;;;;;;;;24.51;53.59;101137.00;5044233;28;1183;-69
2021/06/30 08:38:31;;;;;;;;;;;;;;;24.56;53.94;101132.22;5025779;28;1898;-68
2021/06/30 08:41:17;;;;;;;;;;;;;;;24.56;53.78;101137.53;5026743;28;1119;-64
2021/06/30 08:44:02;;;;;;;;;;;;;;;24.55;53.36;101136.69;5027868;28;699;-66
2021/06/30 08:46:48;;;;;;;;;;;;;;;24.59;53.49;101129.31;5027512;28;1310;-73
2021/06/30 08:49:39;;;;;;;;;;;;;;;24.50;53.45;101128.16;5035444;28;639;-67
2021/06/30 08:52:24;;;;;;;;;;;;;;;24.51;53.55;101131.69;5046424;28;1291;-67
2021/06/30 08:55:12;;;;;;;;;;;;;;;24.46;53.24;101130.25;5047827;28;663;-67
2021/06/30 08:57:57;;;;;;;;;;;;;;;24.49;53.46;101129.16;5048058;28;1977;-66
2021/06/30 09:00:43;;;;;;;;;;;;;;;24.45;53.28;101133.00;5048439;28;958;-67
2021/06/30 09:03:29;;;;;;;;;;;;;;;24.47;53.37;101131.91;5048255;28;1385;-67
2021/06/30 09:06:16;;;;;;;;;;;;;;;24.49;53.40;101139.81;5048136;28;1123;-67
2021/06/30 09:09:06;;;;;;;;;;;;;;;24.47;53.35;101147.03;5048065;28;664;-68
2021/06/30 09:11:53;;;;;;;;;;;;;;;24.45;53.33;101139.19;5048083;28;1256;-67
2021/06/30 09:14:41;;;;;;;;;;;;;;;24.51;53.39;101139.69;5047972;28;636;-67
2021/06/30 09:17:28;;;;;;;;;;;;;;;24.52;53.52;101133.41;5047938;28;1922;-67
2021/06/30 09:20:13;;;;;;;;;;;;;;;24.44;53.39;101144.59;5048103;28;640;-68
2021/06/30 09:23:00;;;;;;;;;;;;;;;24.50;53.24;101148.66;5047614;28;1371;-66
2021/06/30 09:25:46;;;;;;;;;;;;;;;24.50;53.37;101141.47;5052064;28;1057;-66
2021/06/30 09:28:41;;;;;;;;;;;;;;;24.52;53.28;101144.03;5051922;28;1285;-67
2021/06/30 09:31:26;;;;;;;;;;;;;;;24.55;53.10;101135.81;5052139;28;1059;-68
2021/06/30 09:34:12;;;;;;;;;;;;;;;24.52;53.34;101144.91;5052180;28;628;-67
2021/06/30 09:37:04;;;;;;;;;;;;;;;24.51;53.57;101147.66;5051765;28;1369;-67
2021/06/30 09:39:54;;;;;;;;;;;;;;;24.49;53.47;101142.47;5051769;28;686;-67
2021/06/30 09:42:39;;;;;;;;;;;;;;;24.52;53.33;101152.03;5052276;28;1278;-66
2021/06/30 09:45:25;;;;;;;;;;;;;;;24.48;53.40;101149.59;5051375;28;1078;-66
2021/06/30 09:48:10;;;;;;;;;;;;;;;24.43;53.52;101149.09;5051838;28;1358;-67
2021/06/30 09:50:56;;;;;;;;;;;;;;;24.39;53.54;101144.97;5051345;28;1598;-66
2021/06/30 09:53:42;;;;;;;;;;;;;;;24.37;53.65;101140.72;5051428;28;1287;-67
2021/06/30 09:56:39;;;;;;;;;;;;;;;24.39;53.74;101146.78;5051683;28;1043;-67
2021/06/30 09:59:25;;;;;;;;;;;;;;;24.47;53.59;101139.06;5051430;28;1905;-67
2021/06/30 10:02:12;;;;;;;;;;;;;;;24.48;53.67;101136.28;5051319;28;1256;-68
2021/06/30 10:04:58;;;;;;;;;;;;;;;24.52;53.48;101142.25;5051387;28;636;-67
2021/06/30 10:07:44;;;;;;;;;;;;;;;24.54;53.44;101136.78;5051139;28;1419;-68
2021/06/30 10:10:29;;;;;;;;;;;;;;;24.56;53.35;101146.38;5051332;28;1081;-67
2021/06/30 10:13:15;;;;;;;;;;;;;;;24.52;53.26;101136.06;5051140;28;1284;-67
2021/06/30 10:16:00;;;;;;;;;;;;;;;24.45;53.38;101139.19;5051070;28;947;-66
2021/06/30 10:18:48;;;;;;;;;;;;;;;24.56;53.16;101133.06;5050025;28;1898;-68
2021/06/30 10:21:34;;;;;;;;;;;;;;;24.61;53.25;101146.03;5049582;28;1218;-67
2021/06/30 10:24:19;;;;;;;;;;;;;;;24.56;53.34;101141.06;5049405;28;575;-67
2021/06/30 10:27:09;;;;;;;;;;;;;;;24.60;53.06;101146.97;5049405;28;1260;-67
2021/06/30 10:29:56;;;;;;;;;;;;;;;24.58;53.13;101135.59;5049349;28;660;-67
2021/06/30 10:32:59;;;;;;;;;;;;;;;24.60;53.38;101134.50;5049808;28;1288;-66
2021/06/30 10:35:49;;;;;;;;;;;;;;;24.63;53.16;101134.28;5049267;28;1037;-66
2021/06/30 10:38:47;;;;;;;;;;;;;;;24.65;53.11;101134.19;5049130;28;1898;-67
2021/06/30 10:41:37;;;;;;;;;;;;;;;24.63;53.14;101130.75;5049487;28;1260;-66
2021/06/30 10:44:24;;;;;;;;;;;;;;;24.67;53.25;101142.91;5049077;28;593;-66
2021/06/30 10:47:27;;;;;;;;;;;;;;;24.67;53.03;101126.91;5049850;28;1240;-67
2021/06/30 10:50:19;;;;;;;;;;;;;;;24.69;53.02;101135.63;5049277;28;749;-67
2021/06/30 10:53:09;;;;;;;;;;;;;;;24.61;53.30;101128.22;5049045;28;1213;-66
2021/06/30 10:55:59;;;;;;;;;;;;;;;24.67;53.11;101126.91;5048736;28;995;-67
2021/06/30 10:58:59;;;;;;;;;;;;;;;24.71;52.93;101125.72;5048780;28;1902;-67
2021/06/30 11:02:03;;;;;;;;;;;;;;;24.68;53.32;101128.63;5049475;28;1346;-68
2021/06/30 11:04:49;;;;;;;;;;;;;;;24.73;53.45;101139.75;5047258;28;1644;-70
2021/06/30 11:07:35;;;;;;;;;;;;;;;24.74;53.73;101133.47;5048105;28;1775;-70
2021/06/30 11:10:21;;;;;;;;;;;;;;;24.72;54.00;101130.06;5046206;28;659;-68
2021/06/30 11:13:06;;;;;;;;;;;;;;;24.75;53.50;101132.50;5047108;28;1755;-70
2021/06/30 11:15:51;;;;;;;;;;;;;;;24.66;53.98;101123.41;5047372;28;1121;-69
2021/06/30 11:18:56;;;;;;;;;;;;;;;24.71;53.93;101137.22;5001290;28;1339146;-68
2021/06/30 11:21:52;;;;;;;;;;;;;;;24.73;54.08;101132.63;5028797;28;1239;-69
2021/06/30 11:24:42;;;;;;;;;;;;;;;24.70;53.89;101132.00;5029145;28;636;-68
2021/06/30 11:27:34;;;;;;;;;;;;;;;24.70;54.12;101126.69;5028698;28;1330;-68
2021/06/30 11:30:30;;;;;;;;;;;;;;;24.74;54.23;101129.00;5035047;28;1429;-70
2021/06/30 11:33:16;;;;;;;;;;;;;;;24.77;54.49;101130.59;5038575;28;1382;-67
2021/06/30 11:36:02;;;;;;;;;;;;;;;24.81;54.38;101116.94;5028111;28;1003;-68
2021/06/30 11:38:48;;;;;;;;;;;;;;;24.84;54.14;101130.00;5028009;28;1898;-66
2021/06/30 11:41:41;;;;;;;;;;;;;;;24.89;53.97;101122.53;5043719;28;1214;-68
2021/06/30 11:44:37;;;;;;;;;;;;;;;24.85;54.44;101129.06;5047335;28;968;-66
2021/06/30 11:47:22;;;;;;;;;;;;;;;24.78;54.12;101127.78;5025981;28;1272;-65
2021/06/30 11:50:16;;;;;;;;;;;;;;;24.79;54.26;101120.66;5027779;28;699;-65
2021/06/30 11:53:01;;;;;;;;;;;;;;;24.79;54.30;101126.84;5026632;28;1362;-67
2021/06/30 11:55:47;;;;;;;;;;;;;;;24.83;54.10;101124.81;5027813;28;1060;-66
2021/06/30 11:58:54;;;;;;;;;;;;;;;24.82;54.35;101113.31;5028559;28;1902;-65
2021/06/30 12:01:39;;;;;;;;;;;;;;;24.76;54.27;101120.88;5028521;28;1288;-65
2021/06/30 12:04:25;;;;;;;;;;;;;;;24.72;54.58;101122.94;5027530;28;738;-66
2021/06/30 12:07:11;;;;;;;;;;;;;;;24.84;53.91;101118.50;5027470;28;1281;-64
2021/06/30 12:10:00;;;;;;;;;;;;;;;24.87;53.62;101110.28;5027788;28;750;-65
2021/06/30 12:12:47;;;;;;;;;;;;;;;24.94;53.73;101115.03;5046706;28;1760;-66
2021/06/30 12:15:32;;;;;;;;;;;;;;;24.99;53.59;101114.66;5031161;28;1530;-64
2021/06/30 12:18:22;;;;;;;;;;;;;;;25.02;53.72;101106.41;5032979;28;1969;-65
2021/06/30 12:21:07;;;;;;;;;;;;;;;25.05;53.85;101105.38;5027582;28;1092;-63
2021/06/30 12:23:52;;;;;;;;;;;;;;;25.05;53.66;101108.84;5027712;28;644;-64
2021/06/30 12:26:53;;;;;;;;;;;;;;;25.10;53.75;101112.03;5027868;28;1270;-64
2021/06/30 12:29:39;;;;;;;;;;;;;;;25.09;53.37;101102.31;5027338;28;697;-65
2021/06/30 12:32:24;;;;;;;;;;;;;;;25.12;53.39;101095.91;5027609;28;1240;-65
2021/06/30 12:35:10;;;;;;;;;;;;;;;25.12;53.32;101096.75;5027114;28;652;-64
2021/06/30 12:37:59;;;;;;;;;;;;;;;25.13;53.50;101092.28;5027154;28;1353;-65
2021/06/30 12:41:06;;;;;;;;;;;;;;;25.14;53.65;101092.13;5027348;28;1048;-66
2021/06/30 12:43:58;;;;;;;;;;;;;;;25.17;53.20;101094.56;5027114;28;1324;-65
2021/06/30 12:46:44;;;;;;;;;;;;;;;25.16;53.25;101095.56;5027080;28;1261;-64
2021/06/30 12:49:29;;;;;;;;;;;;;;;25.16;53.40;101092.03;5027210;28;640;-64
2021/06/30 12:52:19;;;;;;;;;;;;;;;25.19;53.29;101094.47;5061223;28;1417;-64
2021/06/30 12:55:12;;;;;;;;;;;;;;;25.19;53.31;101092.66;5027221;28;687;-64
2021/06/30 12:57:58;;;;;;;;;;;;;;;25.18;53.77;101100.75;5027026;28;1359;-64
2021/06/30 13:00:57;;;;;;;;;;;;;;;25.13;53.52;101090.47;5027168;28;1009;-66
2021/06/30 13:03:43;;;;;;;;;;;;;;;25.09;53.74;101096.13;5026175;28;1289;-65
2021/06/30 13:06:31;;;;;;;;;;;;;;;25.16;53.81;101097.38;5027163;28;1301;-68
2021/06/30 13:09:18;;;;;;;;;;;;;;;25.19;53.95;101092.66;5027067;28;676;-74
2021/06/30 13:12:07;;;;;;;;;;;;;;;25.24;54.28;101082.47;5039603;28;1792;-74
2021/06/30 13:14:53;;;;;;;;;;;;;;;25.29;53.94;101079.44;5046305;28;636;-68
2021/06/30 13:17:38;;;;;;;;;;;;;;;25.32;53.83;101087.19;5046636;28;1595;-70
2021/06/30 13:20:24;;;;;;;;;;;;;;;25.29;54.25;101074.94;5046640;28;1902;-70
2021/06/30 13:23:10;;;;;;;;;;;;;;;25.27;54.34;101068.88;5046633;28;1245;-75
2021/06/30 13:26:09;;;;;;;;;;;;;;;25.16;54.27;101068.91;5046932;28;1037;-74
2021/06/30 13:29:29;;;;;;;;;;;;;;;25.21;54.23;101053.38;5047188;28;1117;-73
2021/06/30 13:35:31;;;;;;;;;;;;;;;25.34;54.38;101055.91;5047726;28;706;-74
2021/06/30 13:38:22;;;;;;;;;;;;;;;25.33;54.08;101057.72;5047351;28;1288;-75
2021/06/30 13:41:09;;;;;;;;;;;;;;;25.35;54.44;101055.78;5047490;28;699;-72
2021/06/30 13:43:54;;;;;;;;;;;;;;;25.34;53.92;101054.09;5046960;28;1044;-71
2021/06/30 13:46:40;;;;;;;;;;;;;;;25.37;54.35;101059.19;5046375;28;1307;-72
2021/06/30 13:49:25;;;;;;;;;;;;;;;25.32;54.14;101069.34;5047215;28;1056;-69
2021/06/30 13:52:10;;;;;;;;;;;;;;;25.31;54.02;101054.34;5046482;28;1273;-70
2021/06/30 13:54:56;;;;;;;;;;;;;;;25.34;54.45;101055.91;5046130;28;660;-70
2021/06/30 13:57:41;;;;;;;;;;;;;;;25.35;54.64;101046.97;5046093;28;1345;-71
2021/06/30 14:00:27;;;;;;;;;;;;;;;25.35;54.42;101052.28;5046232;28;1898;-74
2021/06/30 14:03:15;;;;;;;;;;;;;;;25.36;54.25;101045.97;5045026;28;1355;-72
2021/06/30 14:06:04;;;;;;;;;;;;;;;25.34;54.53;101043.44;5045050;28;621;-71
2021/06/30 14:08:50;;;;;;;;;;;;;;;25.36;54.56;101045.97;5042977;28;1531;-72
2021/06/30 14:11:35;;;;;;;;;;;;;;;25.36;54.40;101028.16;5047507;28;1604;-72
2021/06/30 14:14:21;;;;;;;;;;;;;;;25.37;54.18;101034.34;5049615;28;993;-72
2021/06/30 14:17:06;;;;;;;;;;;;;;;25.38;54.41;101023.53;5049134;28;1397;-70
2021/06/30 14:19:51;;;;;;;;;;;;;;;25.38;54.39;101023.53;5046431;28;1981;-68
2021/06/30 14:22:38;;;;;;;;;;;;;;;25.38;54.48;101031.53;5048715;28;1353;-70
2021/06/30 14:25:24;;;;;;;;;;;;;;;25.39;54.24;101021.72;5049449;28;762;-69
2021/06/30 14:28:11;;;;;;;;;;;;;;;25.39;54.46;101016.38;5049336;28;1209;-70
2021/06/30 14:30:56;;;;;;;;;;;;;;;25.38;53.75;101012.88;5049034;28;754;-70
2021/06/30 14:33:44;;;;;;;;;;;;;;;25.40;54.34;101010.09;5048784;28;1304;-70
2021/06/30 14:36:30;;;;;;;;;;;;;;;25.37;54.18;101011.19;5045926;28;1531;-69
2021/06/30 14:39:20;;;;;;;;;;;;;;;25.38;53.94;101004.03;5041618;28;1959;-69
2021/06/30 14:42:05;;;;;;;;;;;;;;;25.41;54.23;101006.47;5043920;28;1702;-69
2021/06/30 14:44:50;;;;;;;;;;;;;;;25.40;54.26;100999.44;5048945;28;1435;-70
2021/06/30 14:47:36;;;;;;;;;;;;;;;25.39;54.42;101011.91;5040353;28;1352;-72